Anaconda, MT (59711)

11:30 PM MST on December 09, 2016 (GMT -0700)
goosetown 2 | | Change Station
Active Advisory: Winter Weather Advisory

Elev 5240 ft 46.13 °N, 112.94 °W | Updated 20 seconds ago

Overcast
Overcast
16.3 °F
Feels Like 16 °F
N
0.0
Wind Variable Wind from WSW
Gusts 9.0 mph

Today
High -- | Low -- °F
--% Chance of Precip.
Yesterday
High -- | Low -- °F
Precip. -- in
Pressure 29.86 in
Visibility 2.5 miles
Clouds Few 3500 ft
Overcast 4400 ft
Windchill 16 °F
Dew Point 13 °F
Humidity 87%
Rainfall 0.00 in
Snow Depth Not available.
8:02 AM 4:45 PM
Waxing Gibbous, 81% visible
SPECI KBTM 100616Z AUTO 00000KT 2 1/2SM -SN BR FEW035 OVC044 M07/M08 A2986 RMK AO2 P0000 T10671078
Pressure 29.86 in
Visibility 2.5 miles
Clouds Few 3500 ft
Overcast 4400 ft
Windchill 16 °F
Dew Point 13 °F
Humidity 87%
Rainfall 0.00 in
Snow Depth Not available.
8:02 AM 4:45 PM
Waxing Gibbous, 81% visible
SPECI KBTM 100616Z AUTO 00000KT 2 1/2SM -SN BR FEW035 OVC044 M07/M08 A2986 RMK AO2 P0000 T10671078

10-Day Weather Forecast

Almanac

Astronomy

Dec. 09, 2016 Rise Set
Actual Time
Civil Twilight
Nautical Twilight
Astronomical Twilight
Moon
Length of Visible Light
Length of Day
Tomorrow will be .
, % of the Moon is Illuminated

Today's Extremes

State Highs State Lows

Community

WunderPhotos

Upload Photos

1,956,527 photos uploaded!

WunderBlog® & News

Nearby

Air Quality

  Air Quality AQ Index Pollutant
Not available.

Snow Depth

Station Depth Elevation

Earthquake Activity

City Distance Mag. Time & Date
Minimum magnitude displayed is 2.5.

Coastal Water Temperatures

Place Temperature

Stations

Nearby Weather Stations

Station Location Temp. Windchill Dew Point Humidity Wind Precip. Elev Updated Type
                   

Watches & Warnings

Winter Weather Advisory
Issued: 4:54 PM MST Dec. 9, 2016 – National Weather Service

... Winter Weather Advisory remains in effect from 10 PM this
evening to 11 am MST Saturday...

* impacts/timing: periods of light snow will develop this
evening and continue into Saturday morning. Roads will become
increasingly slick with a reduced visibility at times later
tonight.

* Additional snow accumulations: 1 to 3 inches in the valleys
and 3 to 6 inches in the terrain.

* Locations impacted include: Butte, Georgetown Lake, Highway 12
Garrison to Elliston, Homestake pass, and MacDonald Pass